sensor_id;sensor_type;location;lat;lon;timestamp;pressure;altitude;pressure_sealevel;temperature;humidity
15272;BME280;7737;51.578;7.268;2023-04-10T00:01:48;101741.22;;;6.30;100.00
15272;BME280;7737;51.578;7.268;2023-04-10T00:04:15;101746.13;;;5.98;100.00
15272;BME280;7737;51.578;7.268;2023-04-10T00:06:41;101745.13;;;6.05;100.00
15272;BME280;7737;51.578;7.268;2023-04-10T00:09:09;101744.31;;;6.00;100.00
15272;BME280;7737;51.578;7.268;2023-04-10T00:11:36;101739.31;;;5.79;100.00
15272;BME280;7737;51.578;7.268;2023-04-10T00:14:02;101748.25;;;5.69;100.00
15272;BME280;7737;51.578;7.268;2023-04-10T00:16:29;101746.44;;;5.74;100.00
15272;BME280;7737;51.578;7.268;2023-04-10T00:18:56;101740.41;;;5.63;100.00
15272;BME280;7737;51.578;7.268;2023-04-10T00:21:22;101737.66;;;5.72;100.00
15272;BME280;7737;51.578;7.268;2023-04-10T00:23:49;101735.91;;;5.71;100.00
15272;BME280;7737;51.578;7.268;2023-04-10T00:26:17;101726.19;;;5.74;100.00
15272;BME280;7737;51.578;7.268;2023-04-10T00:28:45;101727.16;;;5.69;100.00
15272;BME280;7737;51.578;7.268;2023-04-10T00:31:11;101720.00;;;5.77;100.00
15272;BME280;7737;51.578;7.268;2023-04-10T00:33:38;101713.97;;;5.67;100.00
15272;BME280;7737;51.578;7.268;2023-04-10T00:36:04;101714.28;;;6.07;100.00
15272;BME280;7737;51.578;7.268;2023-04-10T00:38:31;101702.66;;;6.22;100.00
15272;BME280;7737;51.578;7.268;2023-04-10T00:40:58;101688.59;;;6.70;100.00
15272;BME280;7737;51.578;7.268;2023-04-10T00:43:26;101684.81;;;6.85;100.00
15272;BME280;7737;51.578;7.268;2023-04-10T00:45:52;101667.66;;;7.48;100.00
15272;BME280;7737;51.578;7.268;2023-04-10T00:48:19;101657.47;;;7.70;100.00
15272;BME280;7737;51.578;7.268;2023-04-10T00:50:45;101654.75;;;7.71;100.00
15272;BME280;7737;51.578;7.268;2023-04-10T00:53:12;101653.44;;;7.52;100.00
15272;BME280;7737;51.578;7.268;2023-04-10T00:55:39;101648.66;;;7.69;100.00
15272;BME280;7737;51.578;7.268;2023-04-10T00:58:05;101636.34;;;7.67;100.00
15272;BME280;7737;51.578;7.268;2023-04-10T01:00:33;101633.47;;;7.76;100.00
15272;BME280;7737;51.578;7.268;2023-04-10T01:03:00;101624.91;;;7.66;100.00
15272;BME280;7737;51.578;7.268;2023-04-10T01:05:32;101633.00;;;7.59;100.00
15272;BME280;7737;51.578;7.268;2023-04-10T01:08:07;101620.59;;;7.61;100.00
15272;BME280;7737;51.578;7.268;2023-04-10T01:10:45;101619.41;;;7.74;100.00
15272;BME280;7737;51.578;7.268;2023-04-10T01:13:18;101609.75;;;7.73;100.00
15272;BME280;7737;51.578;7.268;2023-04-10T01:15:52;101613.09;;;7.79;100.00
15272;BME280;7737;51.578;7.268;2023-04-10T01:18:27;101612.28;;;7.77;100.00
15272;BME280;7737;51.578;7.268;2023-04-10T01:20:57;101619.03;;;7.89;100.00
15272;BME280;7737;51.578;7.268;2023-04-10T01:23:40;101614.63;;;7.89;100.00
15272;BME280;7737;51.578;7.268;2023-04-10T01:26:09;101612.16;;;7.83;100.00
15272;BME280;7737;51.578;7.268;2023-04-10T01:28:53;101605.41;;;7.70;100.00
15272;BME280;7737;51.578;7.268;2023-04-10T01:31:28;101605.53;;;7.64;100.00
15272;BME280;7737;51.578;7.268;2023-04-10T01:33:58;101612.34;;;7.74;100.00
15272;BME280;7737;51.578;7.268;2023-04-10T01:36:27;101589.81;;;7.58;100.00
15272;BME280;7737;51.578;7.268;2023-04-10T01:38:57;101592.19;;;7.70;100.00
15272;BME280;7737;51.578;7.268;2023-04-10T01:41:25;101581.03;;;7.56;100.00
15272;BME280;7737;51.578;7.268;2023-04-10T01:43:53;101576.56;;;7.58;100.00
15272;BME280;7737;51.578;7.268;2023-04-10T01:46:21;101578.78;;;7.76;100.00
15272;BME280;7737;51.578;7.268;2023-04-10T01:48:49;101561.06;;;7.78;100.00
15272;BME280;7737;51.578;7.268;2023-04-10T01:51:17;101563.72;;;7.78;100.00
15272;BME280;7737;51.578;7.268;2023-04-10T01:53:44;101559.41;;;7.74;100.00
15272;BME280;7737;51.578;7.268;2023-04-10T01:56:12;101567.56;;;7.65;100.00
15272;BME280;7737;51.578;7.268;2023-04-10T01:58:39;101570.38;;;7.59;100.00
15272;BME280;7737;51.578;7.268;2023-04-10T02:01:07;101565.28;;;7.52;100.00
15272;BME280;7737;51.578;7.268;2023-04-10T02:03:34;101570.38;;;7.59;100.00
15272;BME280;7737;51.578;7.268;2023-04-10T02:06:09;101570.16;;;7.68;100.00
15272;BME280;7737;51.578;7.268;2023-04-10T02:08:42;101562.81;;;7.79;100.00
15272;BME280;7737;51.578;7.268;2023-04-10T02:11:16;101556.91;;;7.70;100.00
15272;BME280;7737;51.578;7.268;2023-04-10T02:13:48;101555.44;;;7.57;100.00
15272;BME280;7737;51.578;7.268;2023-04-10T02:16:18;101553.13;;;7.43;100.00
15272;BME280;7737;51.578;7.268;2023-04-10T02:18:47;101552.69;;;7.61;100.00
15272;BME280;7737;51.578;7.268;2023-04-10T02:21:14;101551.47;;;7.74;100.00
15272;BME280;7737;51.578;7.268;2023-04-10T02:23:41;101560.25;;;7.40;100.00
15272;BME280;7737;51.578;7.268;2023-04-10T02:26:08;101560.31;;;7.38;100.00
15272;BME280;7737;51.578;7.268;2023-04-10T02:28:36;101557.59;;;7.40;100.00
15272;BME280;7737;51.578;7.268;2023-04-10T02:31:03;101555.06;;;7.35;100.00
15272;BME280;7737;51.578;7.268;2023-04-10T02:33:31;101546.75;;;7.52;100.00
15272;BME280;7737;51.578;7.268;2023-04-10T02:35:59;101554.41;;;7.25;100.00
15272;BME280;7737;51.578;7.268;2023-04-10T02:38:25;101544.56;;;7.32;100.00
15272;BME280;7737;51.578;7.268;2023-04-10T02:40:52;101549.47;;;7.49;100.00
15272;BME280;7737;51.578;7.268;2023-04-10T02:43:18;101550.78;;;7.29;100.00
15272;BME280;7737;51.578;7.268;2023-04-10T02:45:44;101547.91;;;7.40;100.00
15272;BME280;7737;51.578;7.268;2023-04-10T02:48:11;101548.47;;;7.53;100.00
15272;BME280;7737;51.578;7.268;2023-04-10T02:50:39;101549.28;;;7.56;100.00
15272;BME280;7737;51.578;7.268;2023-04-10T02:53:10;101541.75;;;7.40;100.00
15272;BME280;7737;51.578;7.268;2023-04-10T02:55:36;101550.91;;;7.25;100.00
15272;BME280;7737;51.578;7.268;2023-04-10T02:58:03;101555.28;;;7.26;100.00
15272;BME280;7737;51.578;7.268;2023-04-10T03:00:29;101546.56;;;7.21;100.00
15272;BME280;7737;51.578;7.268;2023-04-10T03:02:56;101559.97;;;7.13;100.00
15272;BME280;7737;51.578;7.268;2023-04-10T03:05:22;101553.97;;;7.07;100.00
15272;BME280;7737;51.578;7.268;2023-04-10T03:07:50;101562.81;;;7.04;100.00
15272;BME280;7737;51.578;7.268;2023-04-10T03:10:18;101568.38;;;6.92;100.00
15272;BME280;7737;51.578;7.268;2023-04-10T03:12:44;101576.06;;;6.61;100.00
15272;BME280;7737;51.578;7.268;2023-04-10T03:15:12;101578.84;;;6.52;100.00
15272;BME280;7737;51.578;7.268;2023-04-10T03:17:39;101581.94;;;6.28;100.00
15272;BME280;7737;51.578;7.268;2023-04-10T03:20:07;101584.09;;;6.06;100.00
15272;BME280;7737;51.578;7.268;2023-04-10T03:22:33;101588.16;;;6.26;100.00
15272;BME280;7737;51.578;7.268;2023-04-10T03:25:02;101589.91;;;6.25;100.00
15272;BME280;7737;51.578;7.268;2023-04-10T03:27:28;101574.81;;;6.35;100.00
15272;BME280;7737;51.578;7.268;2023-04-10T03:29:56;101576.66;;;6.28;100.00
15272;BME280;7737;51.578;7.268;2023-04-10T03:32:22;101578.75;;;6.11;100.00
15272;BME280;7737;51.578;7.268;2023-04-10T03:34:49;101579.16;;;5.87;100.00
15272;BME280;7737;51.578;7.268;2023-04-10T03:37:15;101581.31;;;5.61;100.00
15272;BME280;7737;51.578;7.268;2023-04-10T03:39:43;101575.94;;;5.67;100.00
15272;BME280;7737;51.578;7.268;2023-04-10T03:42:11;101581.31;;;5.61;100.00
15272;BME280;7737;51.578;7.268;2023-04-10T03:44:37;101577.94;;;5.52;100.00
15272;BME280;7737;51.578;7.268;2023-04-10T03:47:03;101573.44;;;5.58;100.00
15272;BME280;7737;51.578;7.268;2023-04-10T03:49:30;101576.59;;;5.81;100.00
15272;BME280;7737;51.578;7.268;2023-04-10T03:51:56;101568.56;;;5.90;100.00
15272;BME280;7737;51.578;7.268;2023-04-10T03:54:23;101574.19;;;5.66;100.00
15272;BME280;7737;51.578;7.268;2023-04-10T03:56:49;101572.66;;;5.52;100.00
15272;BME280;7737;51.578;7.268;2023-04-10T03:59:17;101572.72;;;5.48;100.00
15272;BME280;7737;51.578;7.268;2023-04-10T04:01:43;101574.44;;;5.50;100.00
15272;BME280;7737;51.578;7.268;2023-04-10T04:04:10;101576.41;;;5.36;100.00
15272;BME280;7737;51.578;7.268;2023-04-10T04:06:36;101577.94;;;5.52;100.00
15272;BME280;7737;51.578;7.268;2023-04-10T04:09:03;101576.25;;;5.45;100.00
15272;BME280;7737;51.578;7.268;2023-04-10T04:11:29;101571.97;;;5.38;100.00
15272;BME280;7737;51.578;7.268;2023-04-10T04:13:56;101571.41;;;5.17;100.00
15272;BME280;7737;51.578;7.268;2023-04-10T04:16:23;101571.44;;;5.15;100.00
15272;BME280;7737;51.578;7.268;2023-04-10T04:18:50;101577.56;;;5.17;100.00
15272;BME280;7737;51.578;7.268;2023-04-10T04:21:16;101569.56;;;5.23;100.00
15272;BME280;7737;51.578;7.268;2023-04-10T04:23:43;101570.56;;;5.15;100.00
15272;BME280;7737;51.578;7.268;2023-04-10T04:26:09;101572.56;;;4.98;100.00
15272;BME280;7737;51.578;7.268;2023-04-10T04:28:36;101573.59;;;4.83;100.00
15272;BME280;7737;51.578;7.268;2023-04-10T04:31:02;101565.63;;;4.87;100.00
15272;BME280;7737;51.578;7.268;2023-04-10T04:33:30;101573.69;;;4.77;100.00
15272;BME280;7737;51.578;7.268;2023-04-10T04:35:56;101569.31;;;4.76;100.00
15272;BME280;7737;51.578;7.268;2023-04-10T04:38:23;101571.81;;;4.85;100.00
15272;BME280;7737;51.578;7.268;2023-04-10T04:40:49;101572.97;;;4.66;100.00
15272;BME280;7737;51.578;7.268;2023-04-10T04:43:16;101581.84;;;4.54;100.00
15272;BME280;7737;51.578;7.268;2023-04-10T04:45:42;101571.34;;;4.51;100.00
15272;BME280;7737;51.578;7.268;2023-04-10T04:48:09;101579.31;;;4.47;100.00
15272;BME280;7737;51.578;7.268;2023-04-10T04:50:39;101575.78;;;4.48;100.00
15272;BME280;7737;51.578;7.268;2023-04-10T04:53:05;101577.47;;;4.55;100.00
15272;BME280;7737;51.578;7.268;2023-04-10T04:55:31;101575.66;;;4.60;100.00
15272;BME280;7737;51.578;7.268;2023-04-10T04:57:58;101574.66;;;4.70;100.00
15272;BME280;7737;51.578;7.268;2023-04-10T05:00:24;101573.31;;;4.32;100.00
15272;BME280;7737;51.578;7.268;2023-04-10T05:02:51;101578.84;;;4.07;100.00
15272;BME280;7737;51.578;7.268;2023-04-10T05:05:17;101568.69;;;4.53;100.00
15272;BME280;7737;51.578;7.268;2023-04-10T05:07:45;101573.34;;;4.31;100.00
15272;BME280;7737;51.578;7.268;2023-04-10T05:10:12;101566.16;;;4.47;100.00
15272;BME280;7737;51.578;7.268;2023-04-10T05:12:38;101573.09;;;4.55;100.00
15272;BME280;7737;51.578;7.268;2023-04-10T05:15:06;101564.97;;;4.72;100.00
15272;BME280;7737;51.578;7.268;2023-04-10T05:17:33;101566.84;;;4.61;100.00
15272;BME280;7737;51.578;7.268;2023-04-10T05:19:59;101563.28;;;4.68;100.00
15272;BME280;7737;51.578;7.268;2023-04-10T05:22:26;101565.00;;;4.69;100.00
15272;BME280;7737;51.578;7.268;2023-04-10T05:24:54;101567.56;;;4.75;100.00
15272;BME280;7737;51.578;7.268;2023-04-10T05:27:20;101570.19;;;4.75;100.00
15272;BME280;7737;51.578;7.268;2023-04-10T05:29:47;101559.78;;;4.64;100.00
15272;BME280;7737;51.578;7.268;2023-04-10T05:32:13;101572.19;;;4.58;100.00
15272;BME280;7737;51.578;7.268;2023-04-10T05:34:40;101572.72;;;4.82;100.00
15272;BME280;7737;51.578;7.268;2023-04-10T05:37:06;101574.41;;;4.89;100.00
15272;BME280;7737;51.578;7.268;2023-04-10T05:39:33;101572.50;;;5.02;100.00
15272;BME280;7737;51.578;7.268;2023-04-10T05:42:01;101578.53;;;5.10;100.00
15272;BME280;7737;51.578;7.268;2023-04-10T05:44:28;101575.06;;;5.08;100.00
15272;BME280;7737;51.578;7.268;2023-04-10T05:46:54;101571.50;;;5.09;100.00
15272;BME280;7737;51.578;7.268;2023-04-10T05:49:21;101569.91;;;4.99;100.00
15272;BME280;7737;51.578;7.268;2023-04-10T05:51:47;101584.31;;;4.71;100.00
15272;BME280;7737;51.578;7.268;2023-04-10T05:54:16;101568.00;;;5.09;100.00
15272;BME280;7737;51.578;7.268;2023-04-10T05:56:43;101572.34;;;5.11;100.00
15272;BME280;7737;51.578;7.268;2023-04-10T05:59:11;101573.13;;;5.19;100.00
15272;BME280;7737;51.578;7.268;2023-04-10T06:01:37;101563.09;;;5.44;100.00
15272;BME280;7737;51.578;7.268;2023-04-10T06:04:04;101562.34;;;5.37;100.00
15272;BME280;7737;51.578;7.268;2023-04-10T06:06:31;101557.03;;;5.39;100.00
15272;BME280;7737;51.578;7.268;2023-04-10T06:08:58;101550.84;;;5.41;100.00
15272;BME280;7737;51.578;7.268;2023-04-10T06:11:25;101554.03;;;5.62;100.00
15272;BME280;7737;51.578;7.268;2023-04-10T06:13:51;101547.47;;;5.90;100.00
15272;BME280;7737;51.578;7.268;2023-04-10T06:16:19;101547.19;;;6.05;100.00
15272;BME280;7737;51.578;7.268;2023-04-10T06:18:46;101538.19;;;6.15;100.00
15272;BME280;7737;51.578;7.268;2023-04-10T06:21:16;101538.03;;;6.24;100.00
15272;BME280;7737;51.578;7.268;2023-04-10T06:23:42;101539.22;;;6.52;100.00
15272;BME280;7737;51.578;7.268;2023-04-10T06:26:09;101531.97;;;6.63;100.00
15272;BME280;7737;51.578;7.268;2023-04-10T06:28:36;101522.94;;;6.73;100.00
15272;BME280;7737;51.578;7.268;2023-04-10T06:31:04;101510.97;;;6.97;100.00
15272;BME280;7737;51.578;7.268;2023-04-10T06:33:32;101515.41;;;7.35;100.00
15272;BME280;7737;51.578;7.268;2023-04-10T06:36:00;101502.69;;;7.51;100.00
15272;BME280;7737;51.578;7.268;2023-04-10T06:38:28;101513.34;;;7.81;100.00
15272;BME280;7737;51.578;7.268;2023-04-10T06:40:54;101497.63;;;8.09;100.00
15272;BME280;7737;51.578;7.268;2023-04-10T06:43:21;101493.69;;;8.56;100.00
15272;BME280;7737;51.578;7.268;2023-04-10T06:45:48;101474.28;;;8.85;100.00
15272;BME280;7737;51.578;7.268;2023-04-10T06:48:14;101466.09;;;9.20;100.00
15272;BME280;7737;51.578;7.268;2023-04-10T06:50:42;101454.41;;;9.26;100.00
15272;BME280;7737;51.578;7.268;2023-04-10T06:53:08;101452.69;;;9.25;100.00
15272;BME280;7737;51.578;7.268;2023-04-10T06:55:35;101441.53;;;9.92;100.00
15272;BME280;7737;51.578;7.268;2023-04-10T06:58:02;101426.75;;;9.59;100.00
15272;BME280;7737;51.578;7.268;2023-04-10T07:00:29;101415.28;;;9.83;100.00
15272;BME280;7737;51.578;7.268;2023-04-10T07:02:56;101401.44;;;10.24;100.00
15272;BME280;7737;51.578;7.268;2023-04-10T07:05:22;101394.41;;;10.22;100.00
15272;BME280;7737;51.578;7.268;2023-04-10T07:07:50;101384.75;;;10.19;100.00
15272;BME280;7737;51.578;7.268;2023-04-10T07:10:17;101384.53;;;10.49;100.00
15272;BME280;7737;51.578;7.268;2023-04-10T07:12:44;101368.56;;;10.72;100.00
15272;BME280;7737;51.578;7.268;2023-04-10T07:15:10;101357.06;;;10.93;100.00
15272;BME280;7737;51.578;7.268;2023-04-10T07:17:37;101333.63;;;11.23;100.00
15272;BME280;7737;51.578;7.268;2023-04-10T07:20:05;101307.41;;;11.34;100.00
15272;BME280;7737;51.578;7.268;2023-04-10T07:22:32;101300.84;;;11.83;100.00
15272;BME280;7737;51.578;7.268;2023-04-10T07:25:00;101292.25;;;11.56;100.00
15272;BME280;7737;51.578;7.268;2023-04-10T07:27:27;101284.97;;;11.80;100.00
15272;BME280;7737;51.578;7.268;2023-04-10T07:29:54;101273.63;;;11.95;100.00
15272;BME280;7737;51.578;7.268;2023-04-10T07:32:21;101259.41;;;11.94;100.00
15272;BME280;7737;51.578;7.268;2023-04-10T07:34:48;101236.75;;;12.23;100.00
15272;BME280;7737;51.578;7.268;2023-04-10T07:37:14;101225.09;;;12.07;100.00
15272;BME280;7737;51.578;7.268;2023-04-10T07:39:42;101235.75;;;12.07;100.00
15272;BME280;7737;51.578;7.268;2023-04-10T07:42:10;101213.16;;;12.33;98.86
15272;BME280;7737;51.578;7.268;2023-04-10T07:44:37;101196.66;;;12.43;96.65
15272;BME280;7737;51.578;7.268;2023-04-10T07:47:04;101200.22;;;12.42;96.52
15272;BME280;7737;51.578;7.268;2023-04-10T07:49:30;101201.88;;;12.45;95.91
15272;BME280;7737;51.578;7.268;2023-04-10T07:51:57;101179.03;;;12.75;93.59
15272;BME280;7737;51.578;7.268;2023-04-10T07:54:24;101154.13;;;12.74;90.66
15272;BME280;7737;51.578;7.268;2023-04-10T07:56:51;101154.69;;;12.81;90.38
15272;BME280;7737;51.578;7.268;2023-04-10T07:59:19;101134.81;;;13.04;87.65
15272;BME280;7737;51.578;7.268;2023-04-10T08:01:46;101121.00;;;12.96;86.24
15272;BME280;7737;51.578;7.268;2023-04-10T08:04:13;101128.22;;;12.94;86.15
15272;BME280;7737;51.578;7.268;2023-04-10T08:06:40;101109.53;;;13.11;84.69
15272;BME280;7737;51.578;7.268;2023-04-10T08:09:07;101116.63;;;13.12;84.40
15272;BME280;7737;51.578;7.268;2023-04-10T08:11:34;101105.44;;;13.04;83.52
15272;BME280;7737;51.578;7.268;2023-04-10T08:14:02;101095.03;;;12.99;82.54
15272;BME280;7737;51.578;7.268;2023-04-10T08:16:32;101077.22;;;13.00;81.60
15272;BME280;7737;51.578;7.268;2023-04-10T08:19:00;101077.59;;;13.09;80.19
15272;BME280;7737;51.578;7.268;2023-04-10T08:21:28;101060.66;;;13.26;78.81
15272;BME280;7737;51.578;7.268;2023-04-10T08:23:57;101050.66;;;13.45;78.51
15272;BME280;7737;51.578;7.268;2023-04-10T08:26:25;101041.59;;;13.94;77.63
15272;BME280;7737;51.578;7.268;2023-04-10T08:28:53;101032.56;;;13.81;77.52
15272;BME280;7737;51.578;7.268;2023-04-10T08:31:21;101028.75;;;13.85;77.10
15272;BME280;7737;51.578;7.268;2023-04-10T08:33:50;101015.31;;;13.87;75.74
15272;BME280;7737;51.578;7.268;2023-04-10T08:36:16;100999.41;;;13.99;74.49
15272;BME280;7737;51.578;7.268;2023-04-10T08:38:43;100995.53;;;14.19;74.05
15272;BME280;7737;51.578;7.268;2023-04-10T08:41:12;100987.72;;;14.16;73.25
15272;BME280;7737;51.578;7.268;2023-04-10T08:43:39;100968.16;;;14.16;71.77
15272;BME280;7737;51.578;7.268;2023-04-10T08:46:06;100958.09;;;14.49;70.74
15272;BME280;7737;51.578;7.268;2023-04-10T08:48:37;100944.06;;;14.45;69.64
15272;BME280;7737;51.578;7.268;2023-04-10T08:51:08;100957.22;;;14.62;68.96
15272;BME280;7737;51.578;7.268;2023-04-10T08:53:42;100924.94;;;14.66;68.04
15272;BME280;7737;51.578;7.268;2023-04-10T08:56:11;100918.91;;;14.62;67.62
15272;BME280;7737;51.578;7.268;2023-04-10T08:58:38;100927.38;;;14.83;67.33
15272;BME280;7737;51.578;7.268;2023-04-10T09:01:05;100920.00;;;15.00;66.36
15272;BME280;7737;51.578;7.268;2023-04-10T09:03:32;100916.34;;;15.01;65.73
15272;BME280;7737;51.578;7.268;2023-04-10T09:06:01;100920.00;;;15.00;65.78
15272;BME280;7737;51.578;7.268;2023-04-10T09:08:29;100903.69;;;15.17;65.46
15272;BME280;7737;51.578;7.268;2023-04-10T09:10:56;100885.66;;;15.34;64.11
15272;BME280;7737;51.578;7.268;2023-04-10T09:13:37;100868.06;;;15.30;62.76
15272;BME280;7737;51.578;7.268;2023-04-10T09:16:05;100874.53;;;15.40;63.27
15272;BME280;7737;51.578;7.268;2023-04-10T09:18:46;100875.28;;;15.42;62.37
15272;BME280;7737;51.578;7.268;2023-04-10T09:21:15;100853.09;;;15.66;61.88
15272;BME280;7737;51.578;7.268;2023-04-10T09:23:44;100833.78;;;15.61;60.21
15272;BME280;7737;51.578;7.268;2023-04-10T09:26:27;100828.97;;;15.66;59.75
15272;BME280;7737;51.578;7.268;2023-04-10T09:28:58;100834.13;;;15.82;59.79
15272;BME280;7737;51.578;7.268;2023-04-10T09:31:42;100830.91;;;16.02;59.28
15272;BME280;7737;51.578;7.268;2023-04-10T09:34:11;100828.53;;;16.10;58.63
15272;BME280;7737;51.578;7.268;2023-04-10T09:36:38;100799.59;;;16.03;56.96
15272;BME280;7737;51.578;7.268;2023-04-10T09:39:09;100797.22;;;16.11;55.86
15272;BME280;7737;51.578;7.268;2023-04-10T09:41:46;100779.41;;;16.22;54.70
15272;BME280;7737;51.578;7.268;2023-04-10T09:44:16;100776.41;;;16.14;54.28
15272;BME280;7737;51.578;7.268;2023-04-10T09:46:44;100782.28;;;16.19;54.57
15272;BME280;7737;51.578;7.268;2023-04-10T09:49:10;100779.94;;;16.15;53.59
15272;BME280;7737;51.578;7.268;2023-04-10T09:51:37;100771.00;;;16.27;53.34
15272;BME280;7737;51.578;7.268;2023-04-10T09:54:04;100766.69;;;16.37;53.41
15272;BME280;7737;51.578;7.268;2023-04-10T09:56:35;100761.13;;;16.27;53.05
15272;BME280;7737;51.578;7.268;2023-04-10T09:59:05;100742.09;;;16.43;52.35
15272;BME280;7737;51.578;7.268;2023-04-10T10:01:32;100748.47;;;16.29;52.38
15272;BME280;7737;51.578;7.268;2023-04-10T10:04:01;100730.41;;;16.44;51.83
15272;BME280;7737;51.578;7.268;2023-04-10T10:06:29;100733.09;;;16.44;52.80
15272;BME280;7737;51.578;7.268;2023-04-10T10:09:00;100743.31;;;16.63;52.76
15272;BME280;7737;51.578;7.268;2023-04-10T10:11:28;100731.41;;;16.67;51.99
15272;BME280;7737;51.578;7.268;2023-04-10T10:14:02;100711.59;;;16.80;51.06
15272;BME280;7737;51.578;7.268;2023-04-10T10:16:33;100730.72;;;16.76;51.24
15272;BME280;7737;51.578;7.268;2023-04-10T10:19:06;100704.94;;;16.73;50.66
15272;BME280;7737;51.578;7.268;2023-04-10T10:21:33;100711.16;;;16.97;50.99
15272;BME280;7737;51.578;7.268;2023-04-10T10:24:02;100710.31;;;16.97;51.93
15272;BME280;7737;51.578;7.268;2023-04-10T10:26:32;100697.66;;;17.10;50.48
15272;BME280;7737;51.578;7.268;2023-04-10T10:29:05;100674.91;;;17.03;49.92
15272;BME280;7737;51.578;7.268;2023-04-10T10:31:35;100689.44;;;17.00;50.85
15272;BME280;7737;51.578;7.268;2023-04-10T10:34:02;100680.47;;;16.78;49.86
15272;BME280;7737;51.578;7.268;2023-04-10T10:36:32;100679.59;;;16.77;50.17
15272;BME280;7737;51.578;7.268;2023-04-10T10:39:09;100687.13;;;16.72;50.69
15272;BME280;7737;51.578;7.268;2023-04-10T10:41:45;100675.78;;;16.69;50.16
15272;BME280;7737;51.578;7.268;2023-04-10T10:44:22;100673.41;;;16.88;49.90
15272;BME280;7737;51.578;7.268;2023-04-10T10:47:03;100655.09;;;16.93;49.25
15272;BME280;7737;51.578;7.268;2023-04-10T10:49:52;100654.69;;;17.21;49.00
15272;BME280;7737;51.578;7.268;2023-04-10T10:52:39;100646.66;;;17.43;49.53
15272;BME280;7737;51.578;7.268;2023-04-10T10:55:28;100649.81;;;17.37;49.87
15272;BME280;7737;51.578;7.268;2023-04-10T10:57:57;100656.53;;;17.21;49.87
15272;BME280;7737;51.578;7.268;2023-04-10T11:03:28;100636.13;;;17.29;49.40
15272;BME280;7737;51.578;7.268;2023-04-10T11:05:56;100638.38;;;17.57;49.93
15272;BME280;7737;51.578;7.268;2023-04-10T11:08:51;100617.81;;;17.45;48.80
15272;BME280;7737;51.578;7.268;2023-04-10T11:11:18;100592.66;;;17.69;48.31
15272;BME280;7737;51.578;7.268;2023-04-10T11:14:12;100584.88;;;17.66;47.39
15272;BME280;7737;51.578;7.268;2023-04-10T11:16:45;100556.25;;;17.64;45.98
15272;BME280;7737;51.578;7.268;2023-04-10T11:19:13;100567.94;;;17.97;46.96
15272;BME280;7737;51.578;7.268;2023-04-10T11:22:03;100553.78;;;17.84;45.58
15272;BME280;7737;51.578;7.268;2023-04-10T11:24:51;100524.72;;;17.67;44.64
15272;BME280;7737;51.578;7.268;2023-04-10T11:27:40;100539.78;;;18.01;45.96
15272;BME280;7737;51.578;7.268;2023-04-10T11:30:28;100544.03;;;18.03;46.37
15272;BME280;7737;51.578;7.268;2023-04-10T11:32:56;100534.34;;;18.12;46.18
15272;BME280;7737;51.578;7.268;2023-04-10T11:35:24;100552.69;;;18.18;47.15
15272;BME280;7737;51.578;7.268;2023-04-10T11:37:58;100532.56;;;18.33;46.28
15272;BME280;7737;51.578;7.268;2023-04-10T11:40:32;100553.81;;;18.47;46.97
15272;BME280;7737;51.578;7.268;2023-04-10T11:43:11;100560.53;;;18.53;46.78
15272;BME280;7737;51.578;7.268;2023-04-10T11:45:38;100560.53;;;18.73;47.71
15272;BME280;7737;51.578;7.268;2023-04-10T11:48:06;100544.16;;;18.86;46.72
15272;BME280;7737;51.578;7.268;2023-04-10T11:50:33;100557.56;;;18.56;47.15
15272;BME280;7737;51.578;7.268;2023-04-10T11:53:00;100551.72;;;18.71;46.40
15272;BME280;7737;51.578;7.268;2023-04-10T11:55:35;100532.72;;;18.73;46.17
15272;BME280;7737;51.578;7.268;2023-04-10T11:58:02;100526.28;;;18.64;45.84
15272;BME280;7737;51.578;7.268;2023-04-10T12:00:29;100536.53;;;18.50;46.69
15272;BME280;7737;51.578;7.268;2023-04-10T12:02:55;100529.34;;;18.50;46.31
15272;BME280;7737;51.578;7.268;2023-04-10T12:05:23;100540.25;;;19.00;47.67
15272;BME280;7737;51.578;7.268;2023-04-10T12:07:50;100521.69;;;18.76;46.70
15272;BME280;7737;51.578;7.268;2023-04-10T12:10:16;100525.44;;;18.84;46.35
15272;BME280;7737;51.578;7.268;2023-04-10T12:12:43;100516.69;;;18.92;45.80
15272;BME280;7737;51.578;7.268;2023-04-10T12:15:26;100506.16;;;18.89;46.16
15272;BME280;7737;51.578;7.268;2023-04-10T12:17:54;100509.28;;;18.84;45.75
15272;BME280;7737;51.578;7.268;2023-04-10T12:20:21;100470.28;;;18.58;44.20
15272;BME280;7737;51.578;7.268;2023-04-10T12:22:54;100482.22;;;19.26;45.21
15272;BME280;7737;51.578;7.268;2023-04-10T12:25:25;100493.00;;;19.26;46.04
15272;BME280;7737;51.578;7.268;2023-04-10T12:27:52;100477.31;;;19.01;44.52
15272;BME280;7737;51.578;7.268;2023-04-10T12:30:18;100463.97;;;18.99;44.55
15272;BME280;7737;51.578;7.268;2023-04-10T12:32:50;100477.06;;;18.83;45.78
15272;BME280;7737;51.578;7.268;2023-04-10T12:35:17;100454.66;;;18.82;44.49
15272;BME280;7737;51.578;7.268;2023-04-10T12:37:48;100457.84;;;18.97;44.57
15272;BME280;7737;51.578;7.268;2023-04-10T12:40:16;100444.84;;;19.12;44.08
15272;BME280;7737;51.578;7.268;2023-04-10T12:42:44;100453.38;;;19.17;44.67
15272;BME280;7737;51.578;7.268;2023-04-10T12:45:11;100459.06;;;19.14;45.44
15272;BME280;7737;51.578;7.268;2023-04-10T12:47:43;100449.25;;;19.53;44.46
15272;BME280;7737;51.578;7.268;2023-04-10T12:50:12;100431.34;;;19.52;44.25
15272;BME280;7737;51.578;7.268;2023-04-10T12:52:41;100416.44;;;19.38;43.86
15272;BME280;7737;51.578;7.268;2023-04-10T12:55:12;100419.03;;;19.59;43.75
15272;BME280;7737;51.578;7.268;2023-04-10T12:57:41;100461.47;;;20.04;46.37
15272;BME280;7737;51.578;7.268;2023-04-10T13:00:09;100421.44;;;19.71;44.76
15272;BME280;7737;51.578;7.268;2023-04-10T13:02:37;100436.03;;;19.50;44.42
15272;BME280;7737;51.578;7.268;2023-04-10T13:05:05;100408.78;;;19.62;43.70
15272;BME280;7737;51.578;7.268;2023-04-10T13:07:32;100400.56;;;19.92;42.94
15272;BME280;7737;51.578;7.268;2023-04-10T13:09:59;100393.00;;;20.15;42.93
15272;BME280;7737;51.578;7.268;2023-04-10T13:12:25;100382.69;;;19.82;42.51